createdAt,value
2018-07-13T00:02:59.538Z,6.80
2018-07-13T00:18:03.241Z,9.57
2018-07-13T00:33:06.942Z,6.40
2018-07-13T00:48:10.741Z,7.27
2018-07-13T01:03:14.590Z,6.37
2018-07-13T01:18:18.358Z,5.77
2018-07-13T01:33:23.396Z,6.53
2018-07-13T01:48:27.116Z,7.13
2018-07-13T02:03:30.872Z,5.30
2018-07-13T02:18:34.636Z,7.30
2018-07-13T02:33:38.793Z,9.27
2018-07-13T02:48:42.553Z,6.87
2018-07-13T03:03:46.321Z,10.43
2018-07-13T03:18:50.003Z,10.57
2018-07-13T03:33:53.688Z,17.37
2018-07-13T03:48:57.397Z,12.87
2018-07-13T04:04:01.230Z,21.00
2018-07-13T04:19:05.328Z,15.37
2018-07-13T04:34:09.139Z,10.17
2018-07-13T04:49:15.084Z,24.37
2018-07-13T05:04:19.076Z,30.60
2018-07-13T05:19:22.864Z,36.53
2018-07-13T05:34:26.780Z,30.77
2018-07-13T05:49:30.931Z,27.40
2018-07-13T06:04:34.928Z,26.43
2018-07-13T06:19:38.684Z,21.70
2018-07-13T06:34:42.388Z,27.50
2018-07-13T06:49:47.133Z,22.32
2018-07-13T07:04:53.795Z,24.15
2018-07-13T07:19:57.561Z,20.60
2018-07-13T07:35:01.380Z,27.30
2018-07-13T07:50:05.341Z,17.57
2018-07-13T08:05:09.137Z,19.05
2018-07-13T08:20:16.011Z,19.65
2018-07-13T08:35:19.828Z,22.15
2018-07-13T08:50:24.718Z,19.00
2018-07-13T09:05:28.618Z,16.62
2018-07-13T09:20:32.409Z,20.75
2018-07-13T09:35:36.122Z,15.87
2018-07-13T09:50:39.955Z,18.23
2018-07-13T10:05:43.806Z,16.83
2018-07-13T10:20:48.125Z,15.80
2018-07-13T10:35:52.464Z,18.98
2018-07-13T10:50:56.238Z,24.57
2018-07-13T11:05:59.979Z,17.67
2018-07-13T11:21:03.801Z,14.98
2018-07-13T11:36:07.501Z,13.32
2018-07-13T11:51:11.526Z,16.85
2018-07-13T12:06:15.307Z,12.60
2018-07-13T12:21:19.125Z,21.07
2018-07-13T12:36:22.898Z,16.90
2018-07-13T12:51:26.779Z,19.90
2018-07-13T13:06:31.606Z,15.40
2018-07-13T13:21:35.420Z,16.70
2018-07-13T13:36:39.181Z,16.13
2018-07-13T13:51:42.945Z,18.63
2018-07-13T14:06:46.752Z,17.77
2018-07-13T14:21:50.700Z,19.27
2018-07-13T14:36:54.544Z,27.73
2018-07-13T14:51:58.317Z,20.13
2018-07-13T15:07:02.112Z,21.00
2018-07-13T15:22:06.911Z,21.77
2018-07-13T15:37:10.685Z,21.00
2018-07-13T15:52:14.572Z,23.50
2018-07-13T16:07:18.357Z,25.33
2018-07-13T16:22:22.125Z,31.50
2018-07-13T16:37:26.876Z,18.47
2018-07-13T16:52:30.623Z,37.03
2018-07-13T17:07:34.312Z,30.07
2018-07-13T17:22:38.094Z,31.63
2018-07-13T17:37:42.697Z,28.33
2018-07-13T17:52:46.493Z,29.80
2018-07-13T18:07:50.296Z,22.23
2018-07-13T18:22:54.115Z,27.37
2018-07-13T18:37:58.514Z,27.07
2018-07-13T18:53:02.770Z,38.33
2018-07-13T19:08:06.567Z,44.30
2018-07-13T19:23:10.368Z,37.00
2018-07-13T19:38:14.182Z,35.67
2018-07-13T19:53:18.057Z,30.00
2018-07-13T20:08:21.862Z,24.53
2018-07-13T20:23:25.630Z,23.90
2018-07-13T20:38:31.419Z,20.33
2018-07-13T20:53:35.506Z,17.77
2018-07-13T21:08:39.301Z,13.40
2018-07-13T21:23:43.047Z,14.77
2018-07-13T21:38:47.893Z,15.17
2018-07-13T21:53:51.706Z,12.23
2018-07-13T22:08:55.464Z,10.17
2018-07-13T22:23:59.334Z,10.47
2018-07-13T22:39:04.206Z,12.90
2018-07-13T22:54:09.185Z,10.03
2018-07-13T23:09:12.988Z,10.10
2018-07-13T23:24:17.845Z,11.67
2018-07-13T23:39:21.557Z,8.53
2018-07-13T23:54:25.361Z,7.70
